createdAt,value
2018-06-02T00:04:55.592Z,0
2018-06-02T00:09:55.673Z,0
2018-06-02T00:14:55.440Z,0
2018-06-02T00:19:55.531Z,0
2018-06-02T00:24:55.756Z,0
2018-06-02T00:29:55.794Z,0
2018-06-02T00:34:55.662Z,0
2018-06-02T00:39:55.605Z,0
2018-06-02T00:44:55.507Z,0
2018-06-02T00:49:55.587Z,0
2018-06-02T00:54:55.714Z,0
2018-06-02T00:59:55.696Z,0
2018-06-02T01:04:55.554Z,0
2018-06-02T01:09:55.683Z,0
2018-06-02T01:14:55.438Z,0
2018-06-02T01:19:55.700Z,0
2018-06-02T01:24:55.651Z,0
2018-06-02T01:29:55.495Z,0
2018-06-02T01:34:55.623Z,0
2018-06-02T01:39:55.479Z,0
2018-06-02T01:44:55.466Z,0
2018-06-02T01:49:55.530Z,0
2018-06-02T01:54:55.304Z,0
2018-06-02T01:59:55.279Z,0
2018-06-02T02:04:55.528Z,0
2018-06-02T02:09:55.546Z,0
2018-06-02T02:14:55.595Z,0
2018-06-02T02:19:55.602Z,0
2018-06-02T02:24:55.509Z,0
2018-06-02T02:29:55.463Z,0
2018-06-02T02:34:55.453Z,0
2018-06-02T02:39:55.389Z,0
2018-06-02T02:44:55.281Z,0
2018-06-02T02:49:55.436Z,0
2018-06-02T02:54:55.246Z,0
2018-06-02T02:59:55.526Z,0
2018-06-02T03:04:55.485Z,0
2018-06-02T03:09:55.191Z,0
2018-06-02T03:14:55.183Z,0
2018-06-02T03:19:55.461Z,0
2018-06-02T03:24:55.337Z,0
2018-06-02T03:29:55.405Z,0.8
2018-06-02T03:34:55.199Z,0.8
2018-06-02T03:39:55.263Z,1.7
2018-06-02T03:44:55.371Z,1.7
2018-06-02T03:49:55.257Z,1.7
2018-06-02T03:54:55.222Z,2.5
2018-06-02T03:59:55.406Z,2.5
2018-06-02T04:04:55.096Z,1.7
2018-06-02T04:09:55.151Z,2.5
2018-06-02T04:14:55.230Z,6.7
2018-06-02T04:19:55.137Z,8.3
2018-06-02T04:24:55.036Z,10.8
2018-06-02T04:29:55.194Z,13.3
2018-06-02T04:34:54.986Z,11.7
2018-06-02T04:39:55.379Z,15.8
2018-06-02T04:44:55.241Z,12.5
2018-06-02T04:49:55.341Z,11.7
2018-06-02T04:54:55.044Z,12.5
2018-06-02T04:59:55.024Z,15
2018-06-02T05:04:55.063Z,16.7
2018-06-02T05:09:55.007Z,17.5
2018-06-02T05:14:55.255Z,19.2
2018-06-02T05:19:55.363Z,20.8
2018-06-02T05:24:55.071Z,20.8
2018-06-02T05:29:55.202Z,23.3
2018-06-02T05:34:55.018Z,24.2
2018-06-02T05:39:55.017Z,27.5
2018-06-02T05:44:54.957Z,30
2018-06-02T05:49:54.998Z,34.2
2018-06-02T05:54:55.260Z,40
2018-06-02T05:59:54.963Z,44.2
2018-06-02T06:04:55.094Z,49.2
2018-06-02T06:09:55.192Z,35
2018-06-02T06:14:55.003Z,30.8
2018-06-02T06:19:55.139Z,30.8
2018-06-02T06:24:54.870Z,35
2018-06-02T06:29:54.926Z,35.8
2018-06-02T06:34:55.129Z,46.7
2018-06-02T06:39:54.853Z,52.5
2018-06-02T06:44:55.052Z,70.8
2018-06-02T06:49:54.846Z,78.3
2018-06-02T06:54:54.957Z,72.5
2018-06-02T06:59:55.155Z,86.7
2018-06-02T07:04:54.907Z,95.8
2018-06-02T07:09:54.915Z,109.2
2018-06-02T07:14:55.145Z,81.7
2018-06-02T07:19:55.120Z,74.2
2018-06-02T07:24:55.036Z,76.7
2018-06-02T07:29:55.053Z,86.7
2018-06-02T07:34:54.871Z,102.5
2018-06-02T07:39:55.153Z,90.8
2018-06-02T07:44:55.009Z,118.3
2018-06-02T07:49:55.101Z,95
2018-06-02T07:54:55.047Z,101.7
2018-06-02T07:59:54.846Z,129.2
2018-06-02T08:04:54.820Z,155
2018-06-02T08:09:55.010Z,120
2018-06-02T08:14:54.747Z,109.2
2018-06-02T08:19:54.961Z,123.3
2018-06-02T08:24:54.759Z,122.5
2018-06-02T08:29:55.044Z,112.5
2018-06-02T08:34:54.737Z,118.3
2018-06-02T08:39:54.793Z,144.2
2018-06-02T08:44:54.904Z,128.3
2018-06-02T08:49:55.163Z,148.3
2018-06-02T08:54:54.798Z,207.5
2018-06-02T08:59:54.750Z,188.3
2018-06-02T09:04:54.884Z,287.5
2018-06-02T09:09:54.757Z,303.3
2018-06-02T09:14:54.678Z,445.8
2018-06-02T09:19:54.774Z,427.5
2018-06-02T09:24:54.687Z,434.2
2018-06-02T09:29:54.772Z,460
2018-06-02T09:34:54.596Z,378.3
2018-06-02T09:39:54.709Z,331.7
2018-06-02T09:44:54.689Z,266.7
2018-06-02T09:49:54.730Z,308.3
2018-06-02T09:54:54.781Z,205.8
2018-06-02T09:59:54.914Z,216.7
2018-06-02T10:04:54.793Z,216.7
2018-06-02T10:09:54.900Z,179.2
2018-06-02T10:14:54.756Z,231.7
2018-06-02T10:19:54.526Z,175.8
2018-06-02T10:24:54.881Z,158.3
2018-06-02T10:29:54.521Z,180.8
2018-06-02T10:34:54.611Z,206.7
2018-06-02T10:39:54.574Z,227.5
2018-06-02T10:44:54.509Z,216.7
2018-06-02T10:49:54.612Z,171.7
2018-06-02T10:54:54.748Z,161.7
2018-06-02T10:59:54.692Z,191.7
2018-06-02T11:04:54.839Z,210
2018-06-02T11:09:54.528Z,201.7
2018-06-02T11:14:54.488Z,198.3
2018-06-02T11:19:54.605Z,290.8
2018-06-02T11:24:54.708Z,214.2
2018-06-02T11:29:54.768Z,165.8
2018-06-02T11:34:54.468Z,204.2
2018-06-02T11:39:54.480Z,178.3
2018-06-02T11:44:54.502Z,237.5
2018-06-02T11:49:54.415Z,182.5
2018-06-02T11:54:54.576Z,179.2
2018-06-02T11:59:54.558Z,317.5
2018-06-02T12:04:54.431Z,537.5
2018-06-02T12:09:54.381Z,453.3
2018-06-02T12:14:54.645Z,365.8
2018-06-02T12:19:54.776Z,231.7
2018-06-02T12:24:54.700Z,220.8
2018-06-02T12:29:54.718Z,322.5
2018-06-02T12:34:54.367Z,345.8
2018-06-02T12:39:54.393Z,346.7
2018-06-02T12:44:54.509Z,275.8
2018-06-02T12:49:54.533Z,233.3
2018-06-02T12:54:54.330Z,161.7
2018-06-02T12:59:54.359Z,135
2018-06-02T13:04:54.665Z,135.8
2018-06-02T13:09:54.462Z,131.7
2018-06-02T13:14:54.368Z,172.5
2018-06-02T13:19:54.835Z,171.7
2018-06-02T13:24:54.452Z,270
2018-06-02T13:29:54.363Z,255
2018-06-02T13:34:54.376Z,439.2
2018-06-02T13:39:54.445Z,346.7
2018-06-02T13:44:54.436Z,418.3
2018-06-02T13:49:54.229Z,255
2018-06-02T13:54:54.538Z,365.8
2018-06-02T13:59:54.525Z,383.3
2018-06-02T14:04:54.462Z,445
2018-06-02T14:09:54.449Z,528.3
2018-06-02T14:14:54.340Z,733.3
2018-06-02T14:19:54.250Z,452.5
2018-06-02T14:24:54.529Z,285
2018-06-02T14:29:54.548Z,220.8
2018-06-02T14:34:54.353Z,240.8
2018-06-02T14:39:54.340Z,151.7
2018-06-02T14:44:54.334Z,181.7
2018-06-02T14:49:54.471Z,234.2
2018-06-02T14:54:54.248Z,177.5
2018-06-02T14:59:54.190Z,183.3
2018-06-02T15:04:54.387Z,182.5
2018-06-02T15:09:54.217Z,129.2
2018-06-02T15:14:54.364Z,178.3
2018-06-02T15:19:54.556Z,213.3
2018-06-02T15:24:54.156Z,216.7
2018-06-02T15:29:54.474Z,190.8
2018-06-02T15:34:54.384Z,158.3
2018-06-02T15:39:54.315Z,206.7
2018-06-02T15:44:54.090Z,217.5
2018-06-02T15:49:54.393Z,154.2
2018-06-02T15:54:54.419Z,154.2
2018-06-02T15:59:54.051Z,76.7
2018-06-02T16:04:54.054Z,61.7
2018-06-02T16:09:54.172Z,48.3
2018-06-02T16:14:54.130Z,38.3
2018-06-02T16:19:54.047Z,92.5
2018-06-02T16:24:54.212Z,83.3
2018-06-02T16:29:54.281Z,94.2
2018-06-02T16:34:54.208Z,106.7
2018-06-02T16:39:54.418Z,90
2018-06-02T16:44:54.285Z,51.7
2018-06-02T16:49:54.483Z,35.8
2018-06-02T16:54:53.975Z,35
2018-06-02T16:59:54.067Z,36.7
2018-06-02T17:04:54.284Z,40.8
2018-06-02T17:09:54.237Z,49.2
2018-06-02T17:14:54.175Z,41.7
2018-06-02T17:19:54.117Z,34.2
2018-06-02T17:24:54.069Z,25
2018-06-02T17:29:53.933Z,21.7
2018-06-02T17:34:53.920Z,36.7
2018-06-02T17:39:54.040Z,40
2018-06-02T17:44:53.966Z,42.5
2018-06-02T17:49:54.214Z,44.2
2018-06-02T17:54:53.943Z,73.3
2018-06-02T17:59:54.154Z,65.8
2018-06-02T18:04:54.038Z,40
2018-06-02T18:09:54.223Z,22.5
2018-06-02T18:14:54.057Z,20
2018-06-02T18:19:54.121Z,15.8
2018-06-02T18:24:53.888Z,23.3
2018-06-02T18:29:53.876Z,30.8
2018-06-02T18:34:53.837Z,33.3
2018-06-02T18:39:53.998Z,29.2
2018-06-02T18:44:54.176Z,18.3
2018-06-02T18:49:53.824Z,11.7
2018-06-02T18:54:54.066Z,8.3
2018-06-02T18:59:54.181Z,10.8
2018-06-02T19:04:53.905Z,8.3
2018-06-02T19:09:53.827Z,5.8
2018-06-02T19:14:54.095Z,4.2
2018-06-02T19:19:53.833Z,4.2
2018-06-02T19:24:53.946Z,3.3
2018-06-02T19:29:53.866Z,2.5
2018-06-02T19:34:53.882Z,1.7
2018-06-02T19:39:53.872Z,3.3
2018-06-02T19:44:53.773Z,2.5
2018-06-02T19:49:53.846Z,1.7
2018-06-02T19:54:53.845Z,0.8
2018-06-02T19:59:53.851Z,0
2018-06-02T20:04:53.743Z,0
2018-06-02T20:09:53.768Z,0
2018-06-02T20:14:53.990Z,0
2018-06-02T20:19:53.764Z,0
2018-06-02T20:24:53.778Z,0
2018-06-02T20:29:53.836Z,0
2018-06-02T20:34:53.904Z,0
2018-06-02T20:39:53.787Z,0
2018-06-02T20:44:53.857Z,0
2018-06-02T20:49:54.013Z,0
2018-06-02T20:54:54.078Z,0
2018-06-02T20:59:53.869Z,0
2018-06-02T21:04:53.782Z,0
2018-06-02T21:09:53.859Z,0
2018-06-02T21:14:53.836Z,0
2018-06-02T21:19:53.807Z,0
2018-06-02T21:24:53.822Z,0
2018-06-02T21:29:54.098Z,0
2018-06-02T21:34:53.693Z,0
2018-06-02T21:39:53.918Z,0
2018-06-02T21:44:53.598Z,0
2018-06-02T21:49:53.912Z,0
2018-06-02T21:54:53.611Z,0
2018-06-02T21:59:53.903Z,0
2018-06-02T22:04:53.719Z,0
2018-06-02T22:09:53.760Z,0
2018-06-02T22:14:53.708Z,0
2018-06-02T22:19:53.795Z,0
2018-06-02T22:24:53.524Z,0
2018-06-02T22:29:53.747Z,0
2018-06-02T22:34:53.733Z,0
2018-06-02T22:39:53.666Z,0
2018-06-02T22:44:53.620Z,0
2018-06-02T22:49:53.776Z,0
2018-06-02T22:54:53.736Z,0
2018-06-02T22:59:53.762Z,0
2018-06-02T23:04:53.602Z,0
2018-06-02T23:09:53.690Z,0
2018-06-02T23:14:53.644Z,0
2018-06-02T23:19:53.747Z,0
2018-06-02T23:24:53.711Z,0
2018-06-02T23:29:53.513Z,0
2018-06-02T23:34:53.731Z,0
2018-06-02T23:39:53.426Z,0
2018-06-02T23:44:53.730Z,0
2018-06-02T23:49:53.748Z,0
2018-06-02T23:54:53.579Z,0
2018-06-02T23:59:53.540Z,0
